createdAt,value
2018-11-29T00:23:05.161Z,2.10
2018-11-29T00:56:03.212Z,1.70
2018-11-29T00:58:56.461Z,1.70
2018-11-29T01:01:32.088Z,1.70
2018-11-29T01:04:19.115Z,1.70
2018-11-29T01:10:02.995Z,1.80
2018-11-29T01:12:47.692Z,1.80
2018-11-29T01:16:06.807Z,1.80
2018-11-29T01:21:44.461Z,1.80
2018-11-29T01:30:18.355Z,1.90
2018-11-29T06:35:40.361Z,2.60
2018-11-29T06:38:09.846Z,2.60
2018-11-29T06:40:40.023Z,2.70
2018-11-29T06:43:39.204Z,2.70
2018-11-29T06:49:08.523Z,2.70
2018-11-29T06:51:38.634Z,2.70
2018-11-29T06:54:07.949Z,2.70
2018-11-29T06:56:38.850Z,2.70
2018-11-29T06:59:15.295Z,2.70
2018-11-29T07:01:59.106Z,2.70
2018-11-29T07:04:30.449Z,2.70
2018-11-29T07:07:07.592Z,2.70
2018-11-29T07:09:49.703Z,2.70
2018-11-29T07:12:25.869Z,2.70
2018-11-29T07:14:56.741Z,2.70
2018-11-29T07:20:15.281Z,2.80
2018-11-29T07:22:46.331Z,2.80
2018-11-29T07:25:25.898Z,2.80
2018-11-29T07:28:02.355Z,2.80
2018-11-29T08:16:22.679Z,2.80
2018-11-29T08:18:51.593Z,2.40
2018-11-29T08:21:27.631Z,2.40
2018-11-29T08:24:00.889Z,2.30
2018-11-29T08:26:30.599Z,2.30
2018-11-29T08:28:59.515Z,2.30
2018-11-29T08:31:28.273Z,2.20
2018-11-29T08:33:57.503Z,2.20
2018-11-29T08:36:26.317Z,2.20
2018-11-29T08:38:55.382Z,2.20
2018-11-29T08:41:25.980Z,2.20
2018-11-29T08:43:55.549Z,2.30
2018-11-29T08:46:24.921Z,2.30
2018-11-29T08:48:57.767Z,2.30
2018-11-29T08:51:27.255Z,2.30
2018-11-29T08:54:05.324Z,2.30
2018-11-29T08:56:45.957Z,2.30
2018-11-29T09:02:11.094Z,2.40
2018-11-29T09:05:22.242Z,2.40
2018-11-29T09:08:07.423Z,2.40
2018-11-29T09:12:03.319Z,2.50
2018-11-29T09:15:16.150Z,2.40
2018-11-29T09:17:56.783Z,2.40
2018-11-29T09:20:26.441Z,2.40
2018-11-29T09:22:57.923Z,2.40
2018-11-29T09:31:14.455Z,2.40
2018-11-29T09:33:43.261Z,2.30
2018-11-29T09:36:12.676Z,2.30
2018-11-29T09:38:41.496Z,2.30
2018-11-29T09:41:10.487Z,2.30
2018-11-29T09:43:39.335Z,2.30
2018-11-29T09:46:08.145Z,2.20
2018-11-29T09:48:37.096Z,2.20
2018-11-29T09:51:06.045Z,2.20
2018-11-29T09:53:34.869Z,2.20
2018-11-29T09:56:03.777Z,2.30
2018-11-29T09:58:32.684Z,2.20
2018-11-29T10:01:01.791Z,2.20
2018-11-29T10:03:31.421Z,2.30
2018-11-29T10:06:00.530Z,2.20
2018-11-29T10:08:30.412Z,2.20
2018-11-29T10:10:59.512Z,2.20
2018-11-29T10:13:28.620Z,2.20
2018-11-29T10:15:57.695Z,2.20
2018-11-29T10:18:27.181Z,2.20
2018-11-29T10:20:56.148Z,2.20
2018-11-29T10:23:25.048Z,2.20
2018-11-29T10:25:54.138Z,2.30
2018-11-29T10:28:23.059Z,2.20
2018-11-29T10:30:53.584Z,2.20
2018-11-29T10:33:22.461Z,2.20
2018-11-29T10:35:59.074Z,2.10
2018-11-29T10:38:23.601Z,2.10
2018-11-29T10:40:52.449Z,2.10
2018-11-29T10:43:22.809Z,2.10
2018-11-29T10:45:52.050Z,2.00
2018-11-29T10:48:23.979Z,2.00
2018-11-29T10:50:52.872Z,2.00
2018-11-29T10:53:23.143Z,2.00
2018-11-29T10:55:53.603Z,1.90
2018-11-29T10:58:22.546Z,1.90
2018-11-29T11:00:56.755Z,1.90
2018-11-29T11:03:25.749Z,1.90
2018-11-29T11:05:54.719Z,1.90
2018-11-29T11:08:23.514Z,1.90
2018-11-29T11:10:52.497Z,1.90
2018-11-29T11:13:21.263Z,1.90
2018-11-29T11:15:50.216Z,1.90
2018-11-29T11:18:23.634Z,1.80
2018-11-29T11:20:52.608Z,1.80
2018-11-29T11:25:55.984Z,1.90
2018-11-29T11:28:24.928Z,1.80
2018-11-29T11:30:53.777Z,1.90
2018-11-29T11:33:22.609Z,1.90
2018-11-29T11:35:51.588Z,1.90
2018-11-29T11:38:20.640Z,1.90
2018-11-29T11:40:49.424Z,1.90
2018-11-29T11:43:18.234Z,1.90
2018-11-29T11:45:47.258Z,1.90
2018-11-29T11:48:16.413Z,1.90
2018-11-29T11:50:45.304Z,1.90
2018-11-29T11:53:15.016Z,1.90
2018-11-29T11:55:43.872Z,1.90
2018-11-29T11:58:13.208Z,1.90
2018-11-29T12:00:45.706Z,1.90
2018-11-29T12:03:20.990Z,1.90
2018-11-29T12:05:52.521Z,1.90
2018-11-29T12:08:23.945Z,1.90
2018-11-29T12:11:00.033Z,1.90
2018-11-29T12:13:46.550Z,1.90
2018-11-29T12:16:19.931Z,1.90
2018-11-29T12:19:06.797Z,1.90
2018-11-29T12:28:21.230Z,2.00
2018-11-29T12:30:50.989Z,2.10
2018-11-29T12:33:20.819Z,2.10
2018-11-29T12:35:51.239Z,2.10
2018-11-29T12:38:21.309Z,2.10
2018-11-29T12:40:50.124Z,2.00
2018-11-29T12:43:18.891Z,2.00
2018-11-29T12:45:48.762Z,2.00
2018-11-29T12:48:17.672Z,1.90
2018-11-29T12:50:46.536Z,1.90
2018-11-29T12:53:15.673Z,1.90
2018-11-29T12:55:45.721Z,1.90
2018-11-29T12:58:14.584Z,1.90
2018-11-29T13:00:43.485Z,1.90
2018-11-29T13:03:12.501Z,1.90
2018-11-29T13:05:41.320Z,1.80
2018-11-29T13:08:10.365Z,1.80
2018-11-29T13:10:39.231Z,1.80
2018-11-29T13:13:08.141Z,1.80
2018-11-29T13:15:36.899Z,1.80
2018-11-29T13:18:07.403Z,1.70
2018-11-29T13:20:36.332Z,1.70
2018-11-29T13:23:05.255Z,1.70
2018-11-29T13:25:34.011Z,1.70
2018-11-29T13:28:02.783Z,1.70
2018-11-29T13:30:31.645Z,1.70
2018-11-29T13:33:00.411Z,1.70
2018-11-29T13:35:32.668Z,1.80
2018-11-29T13:38:03.952Z,1.80
2018-11-29T13:40:32.692Z,1.80
2018-11-29T13:43:01.488Z,1.80
2018-11-29T13:45:30.268Z,1.80
2018-11-29T13:48:00.050Z,1.90
2018-11-29T13:50:28.988Z,1.90
2018-11-29T13:52:57.840Z,1.90
2018-11-29T13:55:26.830Z,1.90
2018-11-29T13:57:55.808Z,1.90
2018-11-29T14:00:24.787Z,1.90
2018-11-29T14:02:55.940Z,2.00
2018-11-29T14:05:24.800Z,2.00
2018-11-29T14:07:53.913Z,2.00
2018-11-29T14:10:23.934Z,2.00
2018-11-29T14:12:55.259Z,2.00
2018-11-29T14:15:26.355Z,2.00
2018-11-29T14:17:55.428Z,1.90
2018-11-29T14:20:24.641Z,2.00
2018-11-29T14:22:53.593Z,1.90
2018-11-29T14:25:23.645Z,1.90
2018-11-29T14:27:57.419Z,1.90
2018-11-29T14:30:34.733Z,1.90
2018-11-29T14:33:10.604Z,1.90
2018-11-29T14:35:50.546Z,1.90
2018-11-29T14:38:33.891Z,1.90
2018-11-29T14:43:52.492Z,1.90
2018-11-29T14:46:22.370Z,1.90
2018-11-29T14:48:54.081Z,1.90
2018-11-29T14:51:22.870Z,1.90
2018-11-29T14:53:52.079Z,1.90
2018-11-29T14:56:20.911Z,1.90
2018-11-29T14:58:49.740Z,1.90
2018-11-29T15:01:18.500Z,1.90
2018-11-29T15:03:47.534Z,2.00
2018-11-29T15:06:16.263Z,2.00
2018-11-29T15:08:45.060Z,1.90
2018-11-29T15:11:13.950Z,1.90
2018-11-29T15:13:42.728Z,1.90
2018-11-29T15:16:11.458Z,1.90
2018-11-29T15:18:40.212Z,1.90
2018-11-29T15:21:08.955Z,1.90
2018-11-29T15:23:37.579Z,1.90
2018-11-29T15:26:06.459Z,1.90
2018-11-29T15:28:35.107Z,2.00
2018-11-29T15:31:04.150Z,2.00
2018-11-29T15:33:32.875Z,2.00
2018-11-29T15:36:02.558Z,2.00
2018-11-29T15:38:31.429Z,2.00
2018-11-29T15:41:00.216Z,2.00
2018-11-29T15:43:28.979Z,2.10
2018-11-29T15:45:57.618Z,2.10
2018-11-29T15:48:26.419Z,2.00
2018-11-29T15:50:55.214Z,2.10
2018-11-29T15:53:23.881Z,2.10
2018-11-29T15:55:52.996Z,2.10
2018-11-29T15:58:21.715Z,2.10
2018-11-29T16:00:50.421Z,2.10
2018-11-29T16:03:19.154Z,2.10
2018-11-29T16:05:47.821Z,2.10
2018-11-29T16:08:16.532Z,2.10
2018-11-29T16:10:45.370Z,2.20
2018-11-29T16:13:14.126Z,2.20
2018-11-29T16:15:42.926Z,2.20
2018-11-29T16:18:11.665Z,2.20
2018-11-29T16:20:40.434Z,2.20
2018-11-29T16:23:10.077Z,2.20
2018-11-29T16:25:38.979Z,2.20
2018-11-29T16:28:08.749Z,2.20
2018-11-29T16:30:48.654Z,2.20
2018-11-29T16:33:21.089Z,2.20
2018-11-29T16:35:49.951Z,2.20
2018-11-29T16:38:18.689Z,2.30
2018-11-29T16:40:47.428Z,2.30
2018-11-29T16:43:16.169Z,2.30
2018-11-29T16:45:44.924Z,2.30
2018-11-29T16:48:13.614Z,2.30
2018-11-29T16:50:42.511Z,2.30
2018-11-29T16:53:11.404Z,2.30
2018-11-29T16:55:40.467Z,2.30
2018-11-29T16:58:11.743Z,2.30
2018-11-29T17:00:40.487Z,2.30
2018-11-29T17:03:09.163Z,2.40
2018-11-29T17:05:38.031Z,2.40
2018-11-29T17:08:07.207Z,2.40
2018-11-29T17:10:36.008Z,2.40
2018-11-29T17:13:08.925Z,2.40
2018-11-29T17:15:37.632Z,2.40
2018-11-29T17:18:06.520Z,2.50
2018-11-29T17:20:36.036Z,2.40
2018-11-29T17:23:05.083Z,2.50
2018-11-29T17:25:33.869Z,2.50
2018-11-29T17:28:02.655Z,2.50
2018-11-29T17:30:31.368Z,2.50
2018-11-29T17:33:00.179Z,2.50
2018-11-29T17:35:28.959Z,2.50
2018-11-29T17:37:58.971Z,2.50
2018-11-29T17:40:27.687Z,2.50
2018-11-29T17:42:57.151Z,2.50
2018-11-29T17:45:27.015Z,2.50
2018-11-29T17:47:57.049Z,2.50
2018-11-29T17:50:31.814Z,2.50
2018-11-29T17:53:00.568Z,2.50
2018-11-29T17:55:29.643Z,2.50
2018-11-29T17:57:58.480Z,2.50
2018-11-29T18:00:31.630Z,2.50
2018-11-29T18:03:00.373Z,2.50
2018-11-29T18:05:29.055Z,2.50
2018-11-29T18:07:58.079Z,2.50
2018-11-29T18:10:28.212Z,2.60
2018-11-29T18:13:00.312Z,2.60
2018-11-29T18:15:31.528Z,2.60
2018-11-29T18:18:00.286Z,2.60
2018-11-29T18:20:29.404Z,2.60
2018-11-29T18:22:58.199Z,2.60
2018-11-29T18:25:26.998Z,2.60
2018-11-29T18:27:55.779Z,2.60
2018-11-29T18:30:24.810Z,2.70
2018-11-29T18:32:53.575Z,2.70
2018-11-29T18:35:22.501Z,2.70
2018-11-29T18:37:51.473Z,2.70
2018-11-29T18:40:21.850Z,2.70
2018-11-29T18:42:55.368Z,2.70
2018-11-29T18:45:25.226Z,2.70
2018-11-29T18:47:59.997Z,2.70
2018-11-29T18:50:30.321Z,2.70
2018-11-29T18:53:00.684Z,2.70
2018-11-29T18:55:35.970Z,2.70
2018-11-29T18:58:10.770Z,2.80
2018-11-29T19:03:24.733Z,2.80
2018-11-29T19:05:57.295Z,2.80
2018-11-29T19:08:29.800Z,2.80
2018-11-29T19:13:44.467Z,2.90
2018-11-29T19:19:08.276Z,2.90
2018-11-29T19:30:48.643Z,3.00
2018-11-29T19:42:43.046Z,3.10
2018-11-29T19:51:01.385Z,3.20
2018-11-29T20:09:38.558Z,3.30
2018-11-29T20:12:20.658Z,3.20
2018-11-29T20:14:52.815Z,3.20
2018-11-29T20:17:25.295Z,3.20
2018-11-29T20:20:00.380Z,3.20
2018-11-29T20:30:47.158Z,3.30
2018-11-29T20:33:30.578Z,3.30
2018-11-29T20:36:19.077Z,3.20
2018-11-29T20:54:05.029Z,3.30
2018-11-29T21:06:19.474Z,3.30
2018-11-29T21:08:50.062Z,3.20
2018-11-29T21:11:28.870Z,3.20
2018-11-29T21:14:09.298Z,3.20
2018-11-29T21:16:52.181Z,3.20
2018-11-29T21:19:22.020Z,3.20
2018-11-29T21:21:52.506Z,3.20
2018-11-29T21:24:21.841Z,3.20
2018-11-29T21:26:50.657Z,3.10
2018-11-29T21:29:19.880Z,3.10
2018-11-29T21:31:48.867Z,3.00
2018-11-29T21:34:18.036Z,3.00
2018-11-29T21:36:47.054Z,3.00
2018-11-29T21:39:17.285Z,2.90
2018-11-29T21:41:46.059Z,2.90
2018-11-29T21:44:14.908Z,2.90
2018-11-29T21:46:43.964Z,2.90
2018-11-29T21:49:12.640Z,2.80
2018-11-29T21:51:41.380Z,2.80
2018-11-29T21:54:10.143Z,2.80
2018-11-29T21:56:38.976Z,2.80
2018-11-29T21:59:07.838Z,2.80
2018-11-29T22:01:40.600Z,2.80
2018-11-29T22:04:09.487Z,2.80
2018-11-29T22:06:38.312Z,2.80
2018-11-29T22:09:07.636Z,2.80
2018-11-29T22:11:36.426Z,2.80
2018-11-29T22:14:05.226Z,2.80
2018-11-29T22:16:34.035Z,2.80
2018-11-29T22:19:02.832Z,2.80
2018-11-29T22:21:31.604Z,2.80
2018-11-29T22:24:00.444Z,2.80
2018-11-29T22:26:29.193Z,2.70
2018-11-29T22:29:00.680Z,2.70
2018-11-29T22:31:26.795Z,2.70
2018-11-29T22:33:55.519Z,2.70
2018-11-29T22:36:24.215Z,2.60
2018-11-29T22:38:52.886Z,2.60
2018-11-29T22:41:21.572Z,2.60
2018-11-29T22:43:50.303Z,2.60
2018-11-29T22:46:19.003Z,2.60
2018-11-29T22:48:47.784Z,2.60
2018-11-29T22:51:16.579Z,2.60
2018-11-29T22:53:45.356Z,2.60
2018-11-29T22:56:14.076Z,2.60
2018-11-29T22:58:42.787Z,2.60
2018-11-29T23:01:16.859Z,2.50
2018-11-29T23:03:45.736Z,2.60
2018-11-29T23:06:14.439Z,2.60
2018-11-29T23:08:43.163Z,2.50
2018-11-29T23:11:11.896Z,2.50
2018-11-29T23:13:40.680Z,2.60
2018-11-29T23:16:09.493Z,2.60
2018-11-29T23:18:38.183Z,2.60
2018-11-29T23:21:07.007Z,2.60
2018-11-29T23:23:35.703Z,2.60
2018-11-29T23:26:04.443Z,2.60
2018-11-29T23:28:33.191Z,2.60
2018-11-29T23:31:01.959Z,2.60
2018-11-29T23:33:30.752Z,2.60
2018-11-29T23:35:59.536Z,2.60
2018-11-29T23:38:28.255Z,2.60
2018-11-29T23:40:56.976Z,2.60
2018-11-29T23:43:26.259Z,2.60
2018-11-29T23:45:55.149Z,2.70
2018-11-29T23:48:26.525Z,2.70
2018-11-29T23:50:56.949Z,2.60
2018-11-29T23:53:25.886Z,2.60
2018-11-29T23:55:54.679Z,2.60
2018-11-29T23:58:23.533Z,2.60
